Time,TemperatureF,DewpointF,PressureIn,WindDirection,WindDirectionDegrees,WindSpeedMPH,WindSpeedGustMPH,Humidity,HourlyPrecipIn,Conditions,Clouds,dailyrainin,SolarRadiationWatts/m^2,SoftwareType,DateUTC
2013-05-09 00:01:00,64.3,56.9,29.92,South,188,0.5,1.2,77,0.00,CLR,,0.00,0.0,WeatherDisplay:10.37,2013-05-09 05:01:00,
2013-05-09 00:06:00,64.2,56.8,29.92,South,188,0.0,0.0,77,0.00,CLR,,0.00,0.0,WeatherDisplay:10.37,2013-05-09 05:06:00,
2013-05-09 00:11:00,64.1,57.1,29.92,South,188,0.8,2.0,78,0.00,CLR,,0.00,0.0,WeatherDisplay:10.37,2013-05-09 05:11:00,
2013-05-09 00:16:00,64.0,57.0,29.92,South,188,0.5,2.3,78,0.00,CLR,,0.00,0.0,WeatherDisplay:10.37,2013-05-09 05:16:00,
2013-05-09 00:21:00,63.9,56.9,29.92,South,188,0.0,0.0,78,0.00,CLR,,0.00,0.0,WeatherDisplay:10.37,2013-05-09 05:21:00,
2013-05-09 00:26:00,63.9,56.5,29.92,South,188,0.0,0.0,77,0.00,CLR,,0.00,0.0,WeatherDisplay:10.37,2013-05-09 05:26:00,
2013-05-09 00:31:00,63.9,56.9,29.92,South,188,0.0,0.0,78,0.00,CLR,,0.00,0.0,WeatherDisplay:10.37,2013-05-09 05:31:00,
2013-05-09 00:36:00,63.8,56.8,29.92,South,188,0.0,1.0,78,0.00,CLR,,0.00,0.0,WeatherDisplay:10.37,2013-05-09 05:36:00,
2013-05-09 00:41:00,63.8,56.8,29.92,South,188,0.0,1.2,78,0.00,CLR,,0.00,0.0,WeatherDisplay:10.37,2013-05-09 05:41:00,
2013-05-09 00:46:00,63.8,56.8,29.91,South,188,0.0,0.0,78,0.00,CLR,,0.00,0.0,WeatherDisplay:10.37,2013-05-09 05:46:00,
2013-05-09 00:51:00,63.7,56.7,29.92,South,188,0.0,0.0,78,0.00,CLR,,0.00,0.0,WeatherDisplay:10.37,2013-05-09 05:51:00,
2013-05-09 00:56:00,63.7,56.7,29.92,South,188,0.0,0.0,78,0.00,CLR,,0.00,0.0,WeatherDisplay:10.37,2013-05-09 05:56:00,
2013-05-09 01:01:00,63.7,57.1,29.91,South,188,0.0,1.2,79,0.00,CLR,,0.00,0.0,WeatherDisplay:10.37,2013-05-09 06:01:00,
2013-05-09 01:06:00,63.6,57.0,29.91,South,188,0.0,0.0,79,0.00,CLR,,0.00,0.0,WeatherDisplay:10.37,2013-05-09 06:06:00,
2013-05-09 01:11:00,63.6,57.0,29.91,South,188,0.0,0.0,79,0.00,CLR,,0.00,0.0,WeatherDisplay:10.37,2013-05-09 06:11:00,
2013-05-09 01:16:00,63.5,56.9,29.91,South,188,0.0,0.0,79,0.00,CLR,,0.00,0.0,WeatherDisplay:10.37,2013-05-09 06:16:00,
2013-05-09 01:21:00,63.4,56.8,29.91,South,188,0.0,0.0,79,0.00,CLR,,0.00,0.0,WeatherDisplay:10.37,2013-05-09 06:21:00,
2013-05-09 01:26:00,63.3,56.7,29.91,South,188,0.5,1.2,79,0.00,CLR,,0.00,0.0,WeatherDisplay:10.37,2013-05-09 06:26:00,
2013-05-09 01:31:00,63.2,56.6,29.91,South,188,0.0,1.2,79,0.00,CLR,,0.00,0.0,WeatherDisplay:10.37,2013-05-09 06:31:00,
2013-05-09 01:37:00,63.1,56.5,29.91,South,188,0.0,0.0,79,0.00,CLR,,0.00,0.0,WeatherDisplay:10.37,2013-05-09 06:37:00,
2013-05-09 01:42:00,63.1,56.8,29.90,South,188,0.6,2.3,80,0.00,CLR,,0.00,0.0,WeatherDisplay:10.37,2013-05-09 06:42:00,
2013-05-09 01:47:00,63.0,56.7,29.90,South,188,0.0,0.0,80,0.00,CLR,,0.00,0.0,WeatherDisplay:10.37,2013-05-09 06:47:00,
2013-05-09 01:52:00,62.8,56.5,29.90,South,188,0.0,0.0,80,0.00,CLR,,0.00,0.0,WeatherDisplay:10.37,2013-05-09 06:52:00,
2013-05-09 01:57:00,62.7,56.4,29.90,South,188,0.0,0.0,80,0.00,CLR,,0.00,0.0,WeatherDisplay:10.37,2013-05-09 06:57:00,
2013-05-09 02:02:00,62.6,56.7,29.90,South,188,0.9,2.3,81,0.00,CLR,,0.00,0.0,WeatherDisplay:10.37,2013-05-09 07:02:00,
2013-05-09 02:07:00,62.4,56.5,29.90,South,188,1.5,3.5,81,0.00,CLR,,0.00,0.0,WeatherDisplay:10.37,2013-05-09 07:07:00,
2013-05-09 02:12:00,62.3,56.4,29.89,South,188,2.0,3.5,81,0.00,CLR,,0.00,0.0,WeatherDisplay:10.37,2013-05-09 07:12:00,
2013-05-09 02:17:00,62.2,56.6,29.89,South,188,0.0,0.0,82,0.00,CLR,,0.00,0.0,WeatherDisplay:10.37,2013-05-09 07:17:00,
2013-05-09 02:22:00,62.2,56.6,29.89,South,188,2.1,3.5,82,0.00,CLR,,0.00,0.0,WeatherDisplay:10.37,2013-05-09 07:22:00,
2013-05-09 02:27:00,62.1,56.5,29.90,South,188,0.0,1.0,82,0.00,CLR,,0.00,0.0,WeatherDisplay:10.37,2013-05-09 07:27:00,
2013-05-09 02:32:00,62.1,56.5,29.89,South,188,1.3,2.3,82,0.00,CLR,,0.00,0.0,WeatherDisplay:10.37,2013-05-09 07:32:00,
2013-05-09 02:37:00,62.1,56.5,29.89,South,188,2.1,3.5,82,0.00,CLR,,0.00,0.0,WeatherDisplay:10.37,2013-05-09 07:37:00,
2013-05-09 02:42:00,62.1,56.5,29.89,South,188,1.1,2.3,82,0.00,CLR,,0.00,0.0,WeatherDisplay:10.37,2013-05-09 07:42:00,
2013-05-09 02:47:00,62.1,56.5,29.89,South,188,1.7,3.0,82,0.00,CLR,,0.00,0.0,WeatherDisplay:10.37,2013-05-09 07:47:00,
2013-05-09 02:52:00,62.1,56.5,29.89,South,188,2.3,3.5,82,0.00,CLR,,0.00,0.0,WeatherDisplay:10.37,2013-05-09 07:52:00,
2013-05-09 02:57:00,62.1,56.9,29.89,South,188,1.4,3.5,83,0.00,CLR,,0.00,0.0,WeatherDisplay:10.37,2013-05-09 07:57:00,
2013-05-09 03:02:00,62.1,56.9,29.89,South,188,0.9,2.3,83,0.00,CLR,,0.00,0.0,WeatherDisplay:10.37,2013-05-09 08:02:00,
2013-05-09 03:07:00,62.1,56.9,29.88,ESE,111,2.9,4.6,83,0.00,CLR,,0.00,0.0,WeatherDisplay:10.37,2013-05-09 08:07:00,
2013-05-09 03:12:00,62.1,56.9,29.89,ESE,111,2.0,3.5,83,0.00,CLR,,0.00,0.0,WeatherDisplay:10.37,2013-05-09 08:12:00,
2013-05-09 03:17:00,62.1,56.9,29.89,ESE,111,1.8,3.5,83,0.00,CLR,,0.00,0.0,WeatherDisplay:10.37,2013-05-09 08:17:00,
2013-05-09 03:22:00,62.2,57.0,29.89,ESE,111,0.9,5.0,83,0.00,CLR,,0.00,0.0,WeatherDisplay:10.37,2013-05-09 08:22:00,
2013-05-09 03:27:00,62.2,57.0,29.89,ESE,109,2.3,4.6,83,0.00,CLR,,0.00,0.0,WeatherDisplay:10.37,2013-05-09 08:27:00,
2013-05-09 03:32:00,62.3,56.7,29.89,ESE,106,1.3,2.3,82,0.00,CLR,,0.00,0.0,WeatherDisplay:10.37,2013-05-09 08:32:00,
2013-05-09 03:37:00,62.3,56.7,29.89,ESE,107,1.6,3.5,82,0.00,CLR,,0.00,0.0,WeatherDisplay:10.37,2013-05-09 08:37:00,
2013-05-09 03:42:00,62.3,56.7,29.89,ESE,106,2.6,3.5,82,0.00,CLR,,0.00,0.0,WeatherDisplay:10.37,2013-05-09 08:42:00,
2013-05-09 03:47:00,62.3,56.7,29.89,ESE,107,2.3,3.5,82,0.00,CLR,,0.00,0.0,WeatherDisplay:10.37,2013-05-09 08:47:00,
2013-05-09 03:52:00,62.3,56.7,29.88,ESE,106,2.0,3.5,82,0.00,CLR,,0.00,0.0,WeatherDisplay:10.37,2013-05-09 08:52:00,
2013-05-09 03:57:00,62.4,56.8,29.89,ESE,106,1.2,3.5,82,0.00,CLR,,0.00,0.0,WeatherDisplay:10.37,2013-05-09 08:57:00,
2013-05-09 04:02:00,62.3,57.1,29.89,ESE,106,0.1,2.3,83,0.00,CLR,,0.00,0.0,WeatherDisplay:10.37,2013-05-09 09:02:00,
2013-05-09 04:07:00,62.3,57.1,29.89,ESE,107,1.1,2.3,83,0.00,CLR,,0.00,0.0,WeatherDisplay:10.37,2013-05-09 09:07:00,
2013-05-09 04:12:00,62.2,57.0,29.89,ESE,109,1.9,3.5,83,0.00,CLR,,0.00,0.0,WeatherDisplay:10.37,2013-05-09 09:12:00,
2013-05-09 04:17:00,62.1,56.9,29.88,ESE,109,2.5,3.5,83,0.00,CLR,,0.00,0.0,WeatherDisplay:10.37,2013-05-09 09:17:00,
2013-05-09 04:22:00,62.1,57.2,29.88,ESE,109,1.3,3.5,84,0.00,CLR,,0.00,0.0,WeatherDisplay:10.37,2013-05-09 09:22:00,
2013-05-09 04:27:00,62.0,57.1,29.88,ESE,103,3.2,5.8,84,0.00,CLR,,0.00,0.0,WeatherDisplay:10.37,2013-05-09 09:27:00,
2013-05-09 04:32:00,61.8,56.9,29.89,ESE,106,0.5,3.0,84,0.00,CLR,,0.00,0.0,WeatherDisplay:10.37,2013-05-09 09:32:00,
2013-05-09 04:37:00,61.7,56.8,29.90,ESE,107,1.5,3.5,84,0.00,CLR,,0.00,0.0,WeatherDisplay:10.37,2013-05-09 09:37:00,
2013-05-09 04:42:00,61.7,57.1,29.91,ESE,107,1.8,3.5,85,0.00,CLR,,0.00,0.0,WeatherDisplay:10.37,2013-05-09 09:42:00,
2013-05-09 04:47:00,61.7,57.1,29.92,SW,234,1.2,2.3,85,0.00,CLR,,0.00,0.0,WeatherDisplay:10.37,2013-05-09 09:47:00,
2013-05-09 04:52:00,61.6,57.0,29.92,West,281,5.2,8.1,85,0.02,RA,,0.04,0.0,WeatherDisplay:10.37,2013-05-09 09:52:00,
2013-05-09 04:57:00,61.6,57.4,29.92,NW,314,1.8,3.5,86,0.04,RA,,0.04,0.0,WeatherDisplay:10.37,2013-05-09 09:57:00,
2013-05-09 05:02:00,61.4,57.2,29.93,WNW,290,2.7,4.6,86,0.09,RA,,0.09,0.0,WeatherDisplay:10.37,2013-05-09 10:02:00,
2013-05-09 05:07:00,61.3,57.1,29.93,WNW,286,1.3,3.5,86,0.10,RA,,0.10,0.0,WeatherDisplay:10.37,2013-05-09 10:07:00,
2013-05-09 05:12:00,61.1,57.2,29.93,SW,236,3.2,4.0,87,0.11,RA,,0.12,0.0,WeatherDisplay:10.37,2013-05-09 10:12:00,
2013-05-09 05:17:00,61.0,57.1,29.93,WSW,254,1.5,4.6,87,0.16,RA,,0.16,0.0,WeatherDisplay:10.37,2013-05-09 10:17:00,
2013-05-09 05:22:00,60.8,56.9,29.94,SW,227,2.9,4.0,87,0.18,RA,,0.18,0.0,WeatherDisplay:10.37,2013-05-09 10:22:00,
2013-05-09 05:27:00,60.7,57.1,29.93,SW,229,1.8,4.0,88,0.20,RA,,0.20,0.0,WeatherDisplay:10.37,2013-05-09 10:27:00,
2013-05-09 05:32:00,60.6,57.0,29.93,SW,229,2.6,3.5,88,0.21,RA,,0.21,0.0,WeatherDisplay:10.37,2013-05-09 10:32:00,
2013-05-09 05:37:00,60.5,56.9,29.94,SW,229,1.7,3.5,88,0.21,RA,,0.21,0.0,WeatherDisplay:10.37,2013-05-09 10:37:00,
2013-05-09 05:42:00,60.4,57.1,29.94,SW,229,0.1,1.2,89,0.22,RA,,0.22,0.0,WeatherDisplay:10.37,2013-05-09 10:42:00,
2013-05-09 05:47:00,60.3,57.0,29.94,SW,229,0.0,0.0,89,0.23,RA,,0.23,0.0,WeatherDisplay:10.37,2013-05-09 10:47:00,
2013-05-09 05:52:00,60.2,56.9,29.93,SW,229,0.0,0.0,89,0.21,RA,,0.23,0.0,WeatherDisplay:10.37,2013-05-09 10:52:00,
2013-05-09 05:57:00,60.2,56.9,29.94,SW,229,1.2,2.3,89,0.21,RA,,0.25,0.0,WeatherDisplay:10.37,2013-05-09 10:57:00,
2013-05-09 06:02:00,60.1,56.8,29.94,SW,229,0.0,0.0,89,0.17,RA,,0.26,0.0,WeatherDisplay:10.37,2013-05-09 11:02:00,
2013-05-09 06:07:00,60.0,56.7,29.93,SW,229,0.0,0.0,89,0.16,RA,,0.26,0.0,WeatherDisplay:10.37,2013-05-09 11:07:00,
2013-05-09 06:12:00,59.9,57.0,29.93,SW,229,0.0,0.0,90,0.16,RA,,0.27,0.0,WeatherDisplay:10.37,2013-05-09 11:12:00,
2013-05-09 06:17:00,59.9,57.0,29.93,SW,229,0.6,2.3,90,0.12,RA,,0.28,0.0,WeatherDisplay:10.37,2013-05-09 11:17:00,
2013-05-09 06:22:00,59.8,56.9,29.93,SW,229,0.0,0.0,90,0.10,RA,,0.28,0.0,WeatherDisplay:10.37,2013-05-09 11:22:00,
2013-05-09 06:27:00,59.8,56.9,29.92,SW,229,0.0,0.0,90,0.09,CLR,,0.28,0.0,WeatherDisplay:10.37,2013-05-09 11:27:00,
2013-05-09 06:32:00,59.8,56.9,29.92,SW,229,0.0,0.0,90,0.09,RA,,0.30,0.0,WeatherDisplay:10.37,2013-05-09 11:32:00,
2013-05-09 06:37:00,59.8,57.2,29.92,SW,229,1.3,2.0,91,0.10,RA,,0.31,0.0,WeatherDisplay:10.37,2013-05-09 11:37:00,
2013-05-09 06:42:00,59.8,56.9,29.91,SW,229,1.5,2.3,90,0.09,RA,,0.31,0.0,WeatherDisplay:10.37,2013-05-09 11:42:00,
2013-05-09 06:47:00,59.8,57.2,29.90,SW,229,2.6,4.0,91,0.07,,,0.31,6.2,WeatherDisplay:10.37,2013-05-09 11:47:00,
2013-05-09 06:52:00,59.6,57.0,29.89,ENE,59,3.8,5.0,91,0.09,RA,,0.32,8.7,WeatherDisplay:10.37,2013-05-09 11:52:00,
2013-05-09 06:57:00,59.5,56.9,29.88,NE,44,5.6,9.2,91,0.07,RA,,0.32,14.9,WeatherDisplay:10.37,2013-05-09 11:57:00,
2013-05-09 07:02:00,59.4,56.8,29.88,ENE,60,4.2,6.0,91,0.06,RA,,0.00,22.3,WeatherDisplay:10.37,2013-05-09 12:02:00,
2013-05-09 07:07:00,59.3,57.0,29.88,East,81,5.2,7.0,92,0.06,RA,,0.00,37.2,WeatherDisplay:10.37,2013-05-09 12:07:00,
2013-05-09 07:12:00,59.3,57.0,29.87,East,98,5.6,9.0,92,0.05,OVC,,0.00,49.6,WeatherDisplay:10.37,2013-05-09 12:12:00,
2013-05-09 07:17:00,59.3,57.0,29.87,ESE,106,4.7,12.0,92,0.04,OVC,,0.00,54.6,WeatherDisplay:10.37,2013-05-09 12:17:00,
2013-05-09 07:22:00,59.4,57.1,29.88,ESE,108,5.0,6.9,92,0.04,OVC,,0.00,60.8,WeatherDisplay:10.37,2013-05-09 12:22:00,
2013-05-09 07:27:00,59.4,57.1,29.88,East,99,5.9,10.4,92,0.04,OVC,,0.00,74.4,WeatherDisplay:10.37,2013-05-09 12:27:00,
2013-05-09 07:32:00,59.4,57.1,29.87,ESE,103,6.5,10.0,92,0.02,BKN,,0.00,94.2,WeatherDisplay:10.37,2013-05-09 12:32:00,
2013-05-09 07:37:00,59.5,57.5,29.87,East,90,3.6,4.6,93,0.02,BKN,,0.00,120.3,WeatherDisplay:10.37,2013-05-09 12:37:00,
2013-05-09 07:42:00,59.6,57.6,29.87,East,97,5.9,9.0,93,0.01,BKN,,0.00,129.0,WeatherDisplay:10.37,2013-05-09 12:42:00,
2013-05-09 07:47:00,59.6,57.6,29.87,ESE,114,4.5,6.9,93,0.01,SCT,,0.00,212.0,WeatherDisplay:10.37,2013-05-09 12:47:00,
2013-05-09 07:52:00,59.8,57.8,29.88,SE,124,3.1,5.8,93,0.00,FEW,,0.00,158.7,WeatherDisplay:10.37,2013-05-09 12:52:00,
2013-05-09 07:57:00,59.9,57.9,29.89,SE,124,0.0,1.2,93,0.00,FEW,,0.00,290.2,WeatherDisplay:10.37,2013-05-09 12:57:00,
2013-05-09 08:02:00,60.2,58.2,29.89,SE,124,0.4,1.2,93,0.00,CLR,,0.00,301.3,WeatherDisplay:10.37,2013-05-09 13:02:00,
2013-05-09 08:07:00,60.4,58.4,29.89,ESE,123,1.6,3.5,93,0.00,CLR,,0.00,200.9,WeatherDisplay:10.37,2013-05-09 13:07:00,
2013-05-09 08:12:00,60.5,58.5,29.88,ESE,123,1.9,4.0,93,0.00,FEW,,0.00,143.8,WeatherDisplay:10.37,2013-05-09 13:12:00,
2013-05-09 08:17:00,60.7,58.7,29.89,SE,124,0.3,2.3,93,0.00,BKN,,0.00,124.0,WeatherDisplay:10.37,2013-05-09 13:17:00,
2013-05-09 08:22:00,60.7,58.7,29.89,SE,124,0.5,3.5,93,0.00,BKN,,0.00,158.7,WeatherDisplay:10.37,2013-05-09 13:22:00,
2013-05-09 08:27:00,60.8,58.8,29.89,ESE,123,2.1,3.5,93,0.00,BKN,,0.00,239.3,WeatherDisplay:10.37,2013-05-09 13:27:00,
2013-05-09 08:32:00,61.0,59.0,29.89,SE,124,3.2,5.0,93,0.00,SCT,,0.00,220.7,WeatherDisplay:10.37,2013-05-09 13:32:00,
2013-05-09 08:37:00,61.2,59.2,29.89,SE,124,3.6,4.6,93,0.00,FEW,,0.00,256.7,WeatherDisplay:10.37,2013-05-09 13:37:00,
2013-05-09 08:42:00,61.4,59.4,29.89,SE,142,3.5,5.8,93,0.00,FEW,,0.00,319.9,WeatherDisplay:10.37,2013-05-09 13:42:00,
2013-05-09 08:47:00,61.9,59.9,29.89,SE,128,5.2,7.0,93,0.00,CLR,,0.00,684.5,WeatherDisplay:10.37,2013-05-09 13:47:00,
2013-05-09 08:52:00,62.4,60.3,29.89,SE,133,4.5,7.0,93,0.00,CLR,,0.00,331.1,WeatherDisplay:10.37,2013-05-09 13:52:00,
2013-05-09 08:57:00,62.3,60.2,29.89,SE,125,4.7,11.5,93,0.00,CLR,,0.00,355.9,WeatherDisplay:10.37,2013-05-09 13:57:00,
2013-05-09 09:02:00,62.8,60.7,29.88,ESE,103,4.8,7.0,93,0.00,CLR,,0.00,699.4,WeatherDisplay:10.37,2013-05-09 14:02:00,
2013-05-09 09:07:00,63.6,61.5,29.88,SSE,149,7.7,11.5,93,0.00,CLR,,0.00,514.6,WeatherDisplay:10.37,2013-05-09 14:07:00,
2013-05-09 09:12:00,63.7,61.3,29.88,SE,130,7.9,12.7,92,0.01,RA,,0.01,618.8,WeatherDisplay:10.37,2013-05-09 14:12:00,
2013-05-09 09:17:00,64.1,61.4,29.88,South,172,7.7,11.5,91,0.01,RA,,0.01,442.7,WeatherDisplay:10.37,2013-05-09 14:17:00,
2013-05-09 09:22:00,64.3,61.3,29.88,SE,139,10.3,18.4,90,0.01,CLR,,0.01,793.6,WeatherDisplay:10.37,2013-05-09 14:22:00,
2013-05-09 09:27:00,64.6,61.0,29.88,ESE,106,11.1,14.0,88,0.01,CLR,,0.01,577.8,WeatherDisplay:10.37,2013-05-09 14:27:00,
2013-05-09 09:32:00,64.8,60.8,29.88,ESE,113,7.9,14.0,87,0.01,CLR,,0.01,923.8,WeatherDisplay:10.37,2013-05-09 14:32:00,
2013-05-09 09:37:00,65.3,61.0,29.88,SE,136,7.8,13.8,86,0.01,CLR,,0.01,747.7,WeatherDisplay:10.37,2013-05-09 14:37:00,
2013-05-09 09:42:00,65.7,61.1,29.88,SE,144,7.3,14.0,85,0.01,CLR,,0.01,699.4,WeatherDisplay:10.37,2013-05-09 14:42:00,
2013-05-09 09:47:00,65.9,60.6,29.88,SE,128,10.7,14.0,83,0.01,CLR,,0.01,405.5,WeatherDisplay:10.37,2013-05-09 14:47:00,
2013-05-09 09:52:00,65.9,60.9,29.88,SE,140,7.1,12.0,84,0.01,CLR,,0.01,437.7,WeatherDisplay:10.37,2013-05-09 14:52:00,
2013-05-09 09:57:00,66.1,61.1,29.88,SSE,161,6.6,15.0,84,0.01,FEW,,0.01,405.5,WeatherDisplay:10.37,2013-05-09 14:57:00,
2013-05-09 10:02:00,65.8,60.5,29.88,ESE,115,7.9,15.0,83,0.01,FEW,,0.01,357.1,WeatherDisplay:10.37,2013-05-09 15:02:00,
2013-05-09 10:07:00,65.8,60.5,29.87,SE,136,8.5,13.8,83,0.01,FEW,,0.01,607.6,WeatherDisplay:10.37,2013-05-09 15:07:00,
2013-05-09 10:12:00,66.0,61.0,29.87,ESE,123,9.2,13.0,84,0.00,FEW,,0.01,466.2,WeatherDisplay:10.37,2013-05-09 15:12:00,
2013-05-09 10:17:00,66.5,61.5,29.87,SSE,148,5.8,11.5,84,0.00,CLR,,0.01,634.9,WeatherDisplay:10.37,2013-05-09 15:17:00,
2013-05-09 10:22:00,66.5,61.2,29.87,SE,144,4.7,12.7,83,0.00,CLR,,0.01,446.4,WeatherDisplay:10.37,2013-05-09 15:22:00,
2013-05-09 10:27:00,66.5,60.8,29.87,ESE,111,9.6,18.0,82,0.00,SCT,,0.01,488.6,WeatherDisplay:10.37,2013-05-09 15:27:00,
2013-05-09 10:32:00,66.5,60.8,29.86,SE,128,8.4,13.0,82,0.00,SCT,,0.01,355.9,WeatherDisplay:10.37,2013-05-09 15:32:00,
2013-05-09 10:37:00,66.6,60.9,29.86,SE,128,10.0,14.0,82,0.00,SCT,,0.01,311.2,WeatherDisplay:10.37,2013-05-09 15:37:00,
2013-05-09 10:42:00,66.5,61.2,29.86,SE,144,4.9,8.1,83,0.00,BKN,,0.01,281.5,WeatherDisplay:10.37,2013-05-09 15:42:00,
2013-05-09 10:47:00,66.4,60.7,29.86,SSE,155,7.4,13.8,82,0.00,BKN,,0.01,287.7,WeatherDisplay:10.37,2013-05-09 15:47:00,
2013-05-09 10:52:00,66.4,60.7,29.86,ESE,115,7.1,14.0,82,0.00,OVC,,0.01,259.2,WeatherDisplay:10.37,2013-05-09 15:52:00,
2013-05-09 10:57:00,66.4,61.1,29.87,ESE,121,4.2,6.0,83,0.00,OVC,,0.01,253.0,WeatherDisplay:10.37,2013-05-09 15:57:00,
2013-05-09 11:02:00,66.5,61.2,29.87,SE,126,4.4,10.4,83,0.00,OVC,,0.01,259.2,WeatherDisplay:10.37,2013-05-09 16:02:00,
2013-05-09 11:07:00,66.6,61.3,29.87,SSE,156,4.3,9.2,83,0.00,OVC,,0.01,305.0,WeatherDisplay:10.37,2013-05-09 16:07:00,
2013-05-09 11:12:00,66.7,61.4,29.86,SSE,156,6.2,9.2,83,0.00,OVC,,0.01,281.5,WeatherDisplay:10.37,2013-05-09 16:12:00,
2013-05-09 11:17:00,66.9,61.9,29.87,SE,139,5.6,10.4,84,0.00,OVC,,0.01,292.6,WeatherDisplay:10.37,2013-05-09 16:17:00,
2013-05-09 11:22:00,67.1,61.8,29.86,SSE,165,8.3,12.0,83,0.00,OVC,,0.01,381.9,WeatherDisplay:10.37,2013-05-09 16:22:00,
2013-05-09 11:27:00,67.5,62.2,29.86,SE,141,5.2,9.2,83,0.00,BKN,,0.01,501.0,WeatherDisplay:10.37,2013-05-09 16:27:00,
2013-05-09 11:32:00,68.0,62.6,29.86,SE,125,4.9,7.0,83,0.00,SCT,,0.01,486.1,WeatherDisplay:10.37,2013-05-09 16:32:00,
2013-05-09 11:37:00,68.4,62.3,29.86,SSE,157,6.6,11.5,81,0.00,SCT,,0.01,598.9,WeatherDisplay:10.37,2013-05-09 16:37:00,
2013-05-09 11:42:00,69.0,62.6,29.86,SSE,160,9.0,12.0,80,0.00,FEW,,0.01,693.2,WeatherDisplay:10.37,2013-05-09 16:42:00,
2013-05-09 11:47:00,69.2,62.8,29.86,SSE,150,7.9,11.5,80,0.00,FEW,,0.01,479.9,WeatherDisplay:10.37,2013-05-09 16:47:00,
2013-05-09 11:52:00,69.4,63.0,29.86,SSE,155,5.3,12.0,80,0.00,SCT,,0.01,364.6,WeatherDisplay:10.37,2013-05-09 16:52:00,
2013-05-09 11:57:00,69.3,62.9,29.86,SSE,159,6.4,10.4,80,0.00,BKN,,0.01,355.9,WeatherDisplay:10.37,2013-05-09 16:57:00,
2013-05-09 12:02:00,69.0,62.2,29.86,SE,134,8.5,15.0,79,0.00,BKN,,0.01,235.6,WeatherDisplay:10.37,2013-05-09 17:02:00,
2013-05-09 12:07:00,68.7,62.3,29.86,South,175,4.5,13.0,80,0.00,OVC,,0.01,137.6,WeatherDisplay:10.37,2013-05-09 17:07:00,
2013-05-09 12:12:00,68.5,62.1,29.86,SSE,163,4.2,12.7,80,0.00,OVC,,0.01,98.0,WeatherDisplay:10.37,2013-05-09 17:12:00,
2013-05-09 12:18:00,68.3,61.9,29.85,South,172,7.2,11.5,80,0.00,OVC,,0.01,86.8,WeatherDisplay:10.37,2013-05-09 17:18:00,
2013-05-09 12:23:00,68.1,62.0,29.85,SW,215,3.3,9.2,81,0.00,OVC,,0.01,34.7,WeatherDisplay:10.37,2013-05-09 17:23:00,
2013-05-09 12:28:00,67.9,62.2,29.85,SSE,153,6.7,11.5,82,0.00,OVC,,0.01,23.6,WeatherDisplay:10.37,2013-05-09 17:28:00,
2013-05-09 12:33:00,67.6,62.3,29.85,South,180,5.3,10.4,83,0.00,OVC,,0.01,17.4,WeatherDisplay:10.37,2013-05-09 17:33:00,
2013-05-09 12:38:00,67.3,62.0,29.85,South,190,6.2,11.5,83,0.00,OVC,,0.01,63.2,WeatherDisplay:10.37,2013-05-09 17:38:00,
2013-05-09 12:43:00,66.9,61.9,29.85,SSE,159,6.9,14.0,84,0.00,OVC,,0.01,111.6,WeatherDisplay:10.37,2013-05-09 17:43:00,
2013-05-09 12:48:00,66.4,61.8,29.84,South,172,4.3,8.1,85,0.05,RA,,0.06,183.5,WeatherDisplay:10.37,2013-05-09 17:48:00,
2013-05-09 12:53:00,66.1,61.8,29.84,SE,146,6.6,12.0,86,0.05,RA,,0.06,176.1,WeatherDisplay:10.37,2013-05-09 17:53:00,
2013-05-09 12:58:00,66.1,61.8,29.84,SSE,165,6.2,10.4,86,0.05,OVC,,0.06,246.8,WeatherDisplay:10.37,2013-05-09 17:58:00,
2013-05-09 13:03:00,66.2,62.2,29.84,South,182,4.4,11.5,87,0.05,OVC,,0.06,246.8,WeatherDisplay:10.37,2013-05-09 18:03:00,
2013-05-09 13:08:00,66.3,62.3,29.83,SSW,205,4.0,9.0,87,0.05,OVC,,0.06,212.0,WeatherDisplay:10.37,2013-05-09 18:08:00,
2013-05-09 13:13:00,66.2,62.2,29.84,SSE,161,3.6,6.9,87,0.05,OVC,,0.06,178.6,WeatherDisplay:10.37,2013-05-09 18:13:00,
2013-05-09 13:18:00,66.1,61.8,29.84,SSE,153,6.1,9.2,86,0.05,OVC,,0.06,163.7,WeatherDisplay:10.37,2013-05-09 18:18:00,
2013-05-09 13:23:00,65.9,61.9,29.83,SSE,168,2.4,5.0,87,0.05,OVC,,0.06,140.1,WeatherDisplay:10.37,2013-05-09 18:23:00,
2013-05-09 13:28:00,65.8,61.8,29.83,South,173,1.7,4.6,87,0.05,OVC,,0.06,140.1,WeatherDisplay:10.37,2013-05-09 18:28:00,
2013-05-09 13:33:00,65.8,62.1,29.83,SSE,148,0.8,3.5,88,0.05,OVC,,0.06,167.4,WeatherDisplay:10.37,2013-05-09 18:33:00,
2013-05-09 13:38:00,65.9,62.2,29.83,SSE,148,0.8,3.5,88,0.05,OVC,,0.06,192.2,WeatherDisplay:10.37,2013-05-09 18:38:00,
2013-05-09 13:43:00,66.1,62.4,29.83,SSE,148,2.8,3.5,88,0.05,OVC,,0.06,187.2,WeatherDisplay:10.37,2013-05-09 18:43:00,
2013-05-09 13:48:00,66.2,62.5,29.83,SSW,209,2.6,6.9,88,0.00,OVC,,0.06,192.2,WeatherDisplay:10.37,2013-05-09 18:48:00,
2013-05-09 13:53:00,66.3,62.6,29.83,SSE,164,1.5,5.8,88,0.00,OVC,,0.06,226.9,WeatherDisplay:10.37,2013-05-09 18:53:00,
2013-05-09 13:58:00,66.5,62.8,29.83,SSE,164,0.6,2.3,88,0.01,RA,,0.07,279.0,WeatherDisplay:10.37,2013-05-09 18:58:00,
2013-05-09 14:03:00,66.7,63.4,29.83,SSE,164,0.9,3.0,89,0.01,RA,,0.07,337.3,WeatherDisplay:10.37,2013-05-09 19:03:00,
2013-05-09 14:08:00,66.8,63.1,29.83,SW,233,3.5,5.8,88,0.01,OVC,,0.07,365.8,WeatherDisplay:10.37,2013-05-09 19:08:00,
2013-05-09 14:13:00,67.1,63.4,29.83,SSW,206,5.4,7.0,88,0.01,BKN,,0.07,327.4,WeatherDisplay:10.37,2013-05-09 19:13:00,
2013-05-09 14:18:00,67.2,63.5,29.83,SW,234,6.6,10.4,88,0.01,OVC,,0.07,267.8,WeatherDisplay:10.37,2013-05-09 19:18:00,
2013-05-09 14:23:00,67.3,63.3,29.82,SSW,192,3.2,9.0,87,0.01,OVC,,0.07,267.8,WeatherDisplay:10.37,2013-05-09 19:23:00,
2013-05-09 14:28:00,67.4,63.4,29.82,SSW,202,2.2,3.5,87,0.01,OVC,,0.07,146.3,WeatherDisplay:10.37,2013-05-09 19:28:00,
2013-05-09 14:33:00,67.3,63.0,29.82,SW,214,3.0,4.6,86,0.01,OVC,,0.07,83.1,WeatherDisplay:10.37,2013-05-09 19:33:00,
2013-05-09 14:38:00,67.2,62.9,29.82,SSW,195,3.8,9.0,86,0.01,OVC,,0.07,150.0,WeatherDisplay:10.37,2013-05-09 19:38:00,
2013-05-09 14:43:00,67.0,62.7,29.82,SSW,213,4.3,11.5,86,0.01,OVC,,0.07,150.0,WeatherDisplay:10.37,2013-05-09 19:43:00,
2013-05-09 14:48:00,66.8,62.5,29.82,South,188,4.0,7.0,86,0.01,OVC,,0.07,132.7,WeatherDisplay:10.37,2013-05-09 19:48:00,
2013-05-09 14:53:00,66.6,62.6,29.82,SSW,205,4.4,9.0,87,0.01,OVC,,0.07,174.8,WeatherDisplay:10.37,2013-05-09 19:53:00,
2013-05-09 14:58:00,66.5,62.5,29.81,SSW,203,3.2,9.0,87,0.00,OVC,,0.07,248.0,WeatherDisplay:10.37,2013-05-09 19:58:00,
2013-05-09 15:03:00,66.5,62.5,29.81,South,170,2.0,5.8,87,0.01,RA,,0.09,281.5,WeatherDisplay:10.37,2013-05-09 20:03:00,
2013-05-09 15:08:00,66.6,62.6,29.81,SSW,194,3.6,7.0,87,0.01,RA,,0.09,298.8,WeatherDisplay:10.37,2013-05-09 20:08:00,
2013-05-09 15:13:00,66.5,62.5,29.81,SSE,159,6.3,9.2,87,0.01,OVC,,0.09,239.3,WeatherDisplay:10.37,2013-05-09 20:13:00,
2013-05-09 15:18:00,66.6,62.6,29.81,SSE,167,5.0,11.5,87,0.01,OVC,,0.09,272.8,WeatherDisplay:10.37,2013-05-09 20:18:00,
2013-05-09 15:23:00,66.4,62.4,29.81,SSW,199,5.0,9.2,87,0.01,OVC,,0.09,129.0,WeatherDisplay:10.37,2013-05-09 20:23:00,
2013-05-09 15:28:00,66.3,62.3,29.80,SSE,165,3.8,7.0,87,0.01,OVC,,0.09,198.4,WeatherDisplay:10.37,2013-05-09 20:28:00,
2013-05-09 15:33:00,66.2,62.5,29.80,SW,221,4.8,9.2,88,0.01,OVC,,0.09,163.7,WeatherDisplay:10.37,2013-05-09 20:33:00,
2013-05-09 15:38:00,66.0,62.3,29.80,SSE,160,5.6,12.7,88,0.01,OVC,,0.09,135.2,WeatherDisplay:10.37,2013-05-09 20:38:00,
2013-05-09 15:43:00,65.8,62.1,29.80,SSE,158,4.8,6.9,88,0.01,OVC,,0.09,143.8,WeatherDisplay:10.37,2013-05-09 20:43:00,
2013-05-09 15:48:00,65.7,62.0,29.80,SW,215,6.7,11.5,88,0.01,OVC,,0.09,98.0,WeatherDisplay:10.37,2013-05-09 20:48:00,
2013-05-09 15:53:00,65.6,61.9,29.80,SSE,148,5.8,9.2,88,0.01,OVC,,0.09,65.7,WeatherDisplay:10.37,2013-05-09 20:53:00,
2013-05-09 15:58:00,65.4,61.8,29.80,SE,134,3.9,7.0,88,0.01,OVC,,0.09,85.6,WeatherDisplay:10.37,2013-05-09 20:58:00,
2013-05-09 16:03:00,65.3,61.7,29.79,South,184,4.7,6.9,88,0.00,OVC,,0.09,172.4,WeatherDisplay:10.37,2013-05-09 21:03:00,
2013-05-09 16:08:00,65.2,61.6,29.79,South,183,6.3,10.4,88,0.00,OVC,,0.09,213.3,WeatherDisplay:10.37,2013-05-09 21:08:00,
2013-05-09 16:13:00,65.3,62.0,29.79,SSE,150,6.1,12.7,89,0.00,OVC,,0.09,158.7,WeatherDisplay:10.37,2013-05-09 21:13:00,
2013-05-09 16:18:00,65.3,62.0,29.79,South,190,5.6,10.4,89,0.00,OVC,,0.09,253.0,WeatherDisplay:10.37,2013-05-09 21:18:00,
2013-05-09 16:23:00,65.6,62.3,29.78,SSE,156,7.3,12.7,89,0.00,BKN,,0.09,342.2,WeatherDisplay:10.37,2013-05-09 21:23:00,
2013-05-09 16:28:00,65.8,62.1,29.78,SW,218,3.3,5.8,88,0.00,SCT,,0.09,319.9,WeatherDisplay:10.37,2013-05-09 21:28:00,
2013-05-09 16:33:00,65.9,62.2,29.79,SSW,206,8.6,12.0,88,0.00,SCT,,0.09,233.1,WeatherDisplay:10.37,2013-05-09 21:33:00,
2013-05-09 16:38:00,66.0,62.0,29.79,SW,233,6.0,12.7,87,0.00,BKN,,0.09,192.2,WeatherDisplay:10.37,2013-05-09 21:38:00,
2013-05-09 16:43:00,66.1,62.1,29.79,South,172,5.2,10.4,87,0.00,OVC,,0.09,157.5,WeatherDisplay:10.37,2013-05-09 21:43:00,
2013-05-09 16:48:00,66.1,61.8,29.78,South,181,5.7,10.4,86,0.00,OVC,,0.09,117.8,WeatherDisplay:10.37,2013-05-09 21:48:00,
2013-05-09 16:53:00,66.2,61.9,29.78,SSW,200,6.8,13.0,86,0.00,OVC,,0.09,267.8,WeatherDisplay:10.37,2013-05-09 21:53:00,
2013-05-09 16:58:00,66.4,62.1,29.78,SSW,205,5.0,11.5,86,0.00,BKN,,0.09,224.4,WeatherDisplay:10.37,2013-05-09 21:58:00,
2013-05-09 17:03:00,66.5,61.8,29.78,South,171,8.0,13.0,85,0.00,BKN,,0.09,200.9,WeatherDisplay:10.37,2013-05-09 22:03:00,
2013-05-09 17:08:00,66.5,61.8,29.78,SW,214,6.8,11.5,85,0.00,BKN,,0.09,176.1,WeatherDisplay:10.37,2013-05-09 22:08:00,
2013-05-09 17:13:00,66.7,62.0,29.78,South,180,4.1,6.9,85,0.00,BKN,,0.09,420.4,WeatherDisplay:10.37,2013-05-09 22:13:00,
2013-05-09 17:18:00,67.0,62.7,29.77,SSE,152,6.0,10.4,86,0.00,FEW,,0.09,414.2,WeatherDisplay:10.37,2013-05-09 22:18:00,
2013-05-09 17:23:00,67.1,62.4,29.77,SSE,152,7.0,17.0,85,0.00,CLR,,0.09,400.5,WeatherDisplay:10.37,2013-05-09 22:23:00,
2013-05-09 17:28:00,67.2,62.9,29.77,SSE,164,4.2,11.5,86,0.00,CLR,,0.09,517.1,WeatherDisplay:10.37,2013-05-09 22:28:00,
2013-05-09 17:33:00,67.6,63.3,29.76,SSE,159,6.1,11.0,86,0.00,CLR,,0.09,656.0,WeatherDisplay:10.37,2013-05-09 22:33:00,
2013-05-09 17:38:00,67.6,62.9,29.77,SE,137,7.0,12.0,85,0.00,CLR,,0.09,261.6,WeatherDisplay:10.37,2013-05-09 22:38:00,
2013-05-09 17:43:00,67.4,62.4,29.77,SW,220,8.4,13.0,84,0.00,CLR,,0.09,272.8,WeatherDisplay:10.37,2013-05-09 22:43:00,
2013-05-09 17:48:00,67.2,62.2,29.78,South,186,7.8,12.0,84,0.00,FEW,,0.09,161.2,WeatherDisplay:10.37,2013-05-09 22:48:00,
2013-05-09 17:53:00,67.2,62.5,29.78,SE,140,5.2,9.0,85,0.00,SCT,,0.09,135.2,WeatherDisplay:10.37,2013-05-09 22:53:00,
2013-05-09 17:58:00,67.1,62.4,29.78,SSE,149,7.2,12.0,85,0.00,BKN,,0.09,115.3,WeatherDisplay:10.37,2013-05-09 22:58:00,
2013-05-09 18:03:00,67.0,62.3,29.78,South,190,4.1,6.0,85,0.00,OVC,,0.09,49.6,WeatherDisplay:10.37,2013-05-09 23:03:00,
2013-05-09 18:08:00,67.0,62.3,29.78,SW,233,6.7,10.0,85,0.00,OVC,,0.09,17.4,WeatherDisplay:10.37,2013-05-09 23:08:00,
2013-05-09 18:13:00,66.8,62.1,29.78,SW,236,4.7,8.1,85,0.00,OVC,,0.09,13.6,WeatherDisplay:10.37,2013-05-09 23:13:00,
2013-05-09 18:18:00,66.7,61.7,29.78,South,188,5.0,11.5,84,0.00,OVC,,0.09,11.2,WeatherDisplay:10.37,2013-05-09 23:18:00,
2013-05-09 18:23:00,66.6,61.9,29.78,SSW,211,3.4,4.0,85,0.00,OVC,,0.09,11.2,WeatherDisplay:10.37,2013-05-09 23:23:00,
2013-05-09 18:28:00,66.5,61.8,29.78,SSW,206,1.8,4.0,85,0.00,OVC,,0.09,8.7,WeatherDisplay:10.37,2013-05-09 23:28:00,
2013-05-09 18:33:00,66.4,61.8,29.78,SSW,211,3.2,6.9,85,0.00,OVC,,0.09,11.2,WeatherDisplay:10.37,2013-05-09 23:33:00,
2013-05-09 18:38:00,66.3,61.7,29.78,South,187,4.7,6.0,85,0.00,OVC,,0.09,11.2,WeatherDisplay:10.37,2013-05-09 23:38:00,
2013-05-09 18:43:00,66.2,61.9,29.78,South,183,3.3,7.0,86,0.00,OVC,,0.09,6.2,WeatherDisplay:10.37,2013-05-09 23:43:00,
2013-05-09 18:48:00,66.0,61.7,29.78,SSE,167,2.1,11.5,86,0.01,RA,,0.11,0.0,WeatherDisplay:10.37,2013-05-09 23:48:00,
2013-05-09 18:53:00,65.8,61.8,29.78,SSE,163,4.0,7.0,87,0.04,RA,,0.12,0.0,WeatherDisplay:10.37,2013-05-09 23:53:00,
2013-05-09 18:58:00,65.5,61.5,29.78,SE,144,5.3,11.5,87,0.05,RA,,0.15,0.0,WeatherDisplay:10.37,2013-05-09 23:58:00,
2013-05-09 19:03:00,65.2,61.6,29.78,South,173,3.2,6.0,88,0.06,RA,,0.16,6.2,WeatherDisplay:10.37,2013-05-10 00:03:00,
2013-05-09 19:08:00,65.0,61.4,29.78,South,171,3.5,5.0,88,0.07,RA,,0.16,8.7,WeatherDisplay:10.37,2013-05-10 00:08:00,
2013-05-09 19:13:00,64.8,61.5,29.78,SSW,213,4.0,6.9,89,0.07,RA,,0.17,13.6,WeatherDisplay:10.37,2013-05-10 00:13:00,
2013-05-09 19:18:00,64.6,61.6,29.78,SW,223,6.2,9.2,90,0.10,RA,,0.18,14.9,WeatherDisplay:10.37,2013-05-10 00:18:00,
2013-05-09 19:23:00,64.5,61.5,29.79,SW,226,4.3,5.8,90,0.11,RA,,0.20,13.6,WeatherDisplay:10.37,2013-05-10 00:23:00,
2013-05-09 19:28:00,64.3,61.3,29.79,WSW,249,4.9,10.0,90,0.12,RA,,0.21,17.4,WeatherDisplay:10.37,2013-05-10 00:28:00,
2013-05-09 19:33:00,64.1,61.1,29.79,WSW,237,7.8,12.7,90,0.12,RA,,0.21,22.3,WeatherDisplay:10.37,2013-05-10 00:33:00,
2013-05-09 19:38:00,63.9,60.9,29.80,SW,234,3.4,6.0,90,0.14,RA,,0.22,22.3,WeatherDisplay:10.37,2013-05-10 00:38:00,
2013-05-09 19:43:00,63.8,60.8,29.80,West,260,4.3,5.8,90,0.14,RA,,0.22,34.7,WeatherDisplay:10.37,2013-05-10 00:43:00,
2013-05-09 19:48:00,63.6,60.9,29.80,WSW,246,4.7,9.2,91,0.12,FEW,,0.22,31.0,WeatherDisplay:10.37,2013-05-10 00:48:00,
2013-05-09 19:53:00,63.5,60.8,29.80,WSW,244,4.4,9.2,91,0.10,FEW,,0.22,23.6,WeatherDisplay:10.37,2013-05-10 00:53:00,
2013-05-09 19:58:00,63.3,60.6,29.80,WSW,248,3.7,7.0,91,0.09,SCT,,0.22,14.9,WeatherDisplay:10.37,2013-05-10 00:58:00,
2013-05-09 20:03:00,63.1,60.4,29.80,SW,232,2.7,5.0,91,0.07,OVC,,0.22,6.2,WeatherDisplay:10.37,2013-05-10 01:03:00,
2013-05-09 20:08:00,63.0,60.3,29.80,SW,222,3.4,6.0,91,0.06,OVC,,0.22,0.0,WeatherDisplay:10.37,2013-05-10 01:08:00,
2013-05-09 20:13:00,62.9,60.2,29.80,SW,233,1.7,4.6,91,0.06,OVC,,0.22,0.0,WeatherDisplay:10.37,2013-05-10 01:13:00,
2013-05-09 20:18:00,62.8,60.1,29.80,SW,234,3.0,4.6,91,0.04,OVC,,0.22,0.0,WeatherDisplay:10.37,2013-05-10 01:18:00,
2013-05-09 20:23:00,62.7,60.0,29.80,SW,234,2.2,3.5,91,0.04,RA,,0.23,0.0,WeatherDisplay:10.37,2013-05-10 01:23:00,
2013-05-09 20:28:00,62.7,60.0,29.80,SW,234,3.0,3.5,91,0.02,RA,,0.23,0.0,WeatherDisplay:10.37,2013-05-10 01:28:00,
2013-05-09 20:33:00,62.5,59.8,29.80,SW,234,0.5,2.0,91,0.02,CLR,,0.23,0.0,WeatherDisplay:10.37,2013-05-10 01:33:00,
2013-05-09 20:38:00,62.5,59.8,29.80,SW,234,3.2,5.0,91,0.01,OVC,,0.23,0.0,WeatherDisplay:10.37,2013-05-10 01:38:00,
2013-05-09 20:43:00,62.3,59.6,29.80,SW,233,0.6,2.3,91,0.01,CLR,,0.23,0.0,WeatherDisplay:10.37,2013-05-10 01:43:00,
2013-05-09 20:48:00,62.3,59.6,29.80,SW,233,1.2,3.5,91,0.01,CLR,,0.23,0.0,WeatherDisplay:10.37,2013-05-10 01:48:00,
2013-05-09 20:53:00,62.2,59.8,29.80,SW,234,1.8,3.5,92,0.01,CLR,,0.23,0.0,WeatherDisplay:10.37,2013-05-10 01:53:00,
2013-05-09 20:58:00,62.2,59.5,29.80,SW,234,1.3,4.0,91,0.01,CLR,,0.23,0.0,WeatherDisplay:10.37,2013-05-10 01:58:00,
2013-05-09 21:03:00,62.1,59.7,29.80,SW,234,0.1,2.3,92,0.01,CLR,,0.23,0.0,WeatherDisplay:10.37,2013-05-10 02:03:00,
2013-05-09 21:08:00,62.0,59.6,29.80,SW,234,2.2,3.5,92,0.01,CLR,,0.23,0.0,WeatherDisplay:10.37,2013-05-10 02:08:00,
2013-05-09 21:13:00,61.9,59.5,29.80,SW,234,1.9,3.5,92,0.01,CLR,,0.23,0.0,WeatherDisplay:10.37,2013-05-10 02:13:00,
2013-05-09 21:18:00,61.9,59.5,29.80,SW,234,1.6,3.5,92,0.01,CLR,,0.23,0.0,WeatherDisplay:10.37,2013-05-10 02:18:00,
2013-05-09 21:23:00,61.8,59.5,29.81,SW,234,2.3,3.5,92,0.00,CLR,,0.23,0.0,WeatherDisplay:10.37,2013-05-10 02:23:00,
2013-05-09 21:28:00,61.8,59.5,29.81,SW,233,1.0,2.3,92,0.00,CLR,,0.23,0.0,WeatherDisplay:10.37,2013-05-10 02:28:00,
2013-05-09 21:33:00,61.8,59.5,29.81,SW,234,1.9,3.5,92,0.00,CLR,,0.23,0.0,WeatherDisplay:10.37,2013-05-10 02:33:00,
2013-05-09 21:38:00,61.8,59.5,29.81,SW,233,2.6,5.8,92,0.00,CLR,,0.23,0.0,WeatherDisplay:10.37,2013-05-10 02:38:00,
2013-05-09 21:43:00,61.8,59.5,29.81,SW,236,3.2,6.0,92,0.00,CLR,,0.23,0.0,WeatherDisplay:10.37,2013-05-10 02:43:00,
2013-05-09 21:48:00,61.8,59.8,29.82,WSW,243,3.2,6.9,93,0.00,CLR,,0.23,0.0,WeatherDisplay:10.37,2013-05-10 02:48:00,
2013-05-09 21:53:00,61.8,59.8,29.81,SW,232,4.1,5.8,93,0.00,CLR,,0.23,0.0,WeatherDisplay:10.37,2013-05-10 02:53:00,
2013-05-09 21:58:00,61.8,59.8,29.81,SW,234,2.4,4.0,93,0.01,RA,,0.25,0.0,WeatherDisplay:10.37,2013-05-10 02:58:00,
2013-05-09 22:03:00,61.8,59.8,29.81,SW,234,0.8,3.5,93,0.01,RA,,0.25,0.0,WeatherDisplay:10.37,2013-05-10 03:03:00,
2013-05-09 22:08:00,61.8,59.8,29.81,SW,226,2.1,5.0,93,0.01,,,0.25,0.0,WeatherDisplay:10.37,2013-05-10 03:08:00,
2013-05-09 22:13:00,61.7,59.7,29.81,SW,227,2.5,5.8,93,0.01,CLR,,0.25,0.0,WeatherDisplay:10.37,2013-05-10 03:13:00,
2013-05-09 22:18:00,61.7,59.7,29.81,SW,228,3.5,6.0,93,0.01,CLR,,0.25,0.0,WeatherDisplay:10.37,2013-05-10 03:18:00,
2013-05-09 22:23:00,61.6,59.6,29.81,WSW,246,3.4,5.8,93,0.01,CLR,,0.25,0.0,WeatherDisplay:10.37,2013-05-10 03:23:00,
2013-05-09 22:28:00,61.6,59.6,29.81,SW,218,3.9,8.1,93,0.01,CLR,,0.25,0.0,WeatherDisplay:10.37,2013-05-10 03:28:00,
2013-05-09 22:33:00,61.5,59.5,29.81,WSW,257,4.1,6.9,93,0.01,CLR,,0.25,0.0,WeatherDisplay:10.37,2013-05-10 03:33:00,
2013-05-09 22:38:00,61.4,59.4,29.81,SW,230,2.8,4.0,93,0.01,CLR,,0.25,0.0,WeatherDisplay:10.37,2013-05-10 03:38:00,
2013-05-09 22:43:00,61.3,59.3,29.81,SW,233,2.9,4.6,93,0.01,CLR,,0.25,0.0,WeatherDisplay:10.37,2013-05-10 03:43:00,
2013-05-09 22:48:00,61.3,59.3,29.80,West,271,2.8,4.6,93,0.01,CLR,,0.25,0.0,WeatherDisplay:10.37,2013-05-10 03:48:00,
2013-05-09 22:54:00,61.2,59.2,29.80,West,271,2.9,4.0,93,0.01,CLR,,0.25,0.0,WeatherDisplay:10.37,2013-05-10 03:54:00,
2013-05-09 22:59:00,61.0,59.0,29.80,West,271,3.1,5.0,93,0.00,CLR,,0.25,0.0,WeatherDisplay:10.37,2013-05-10 03:59:00,
2013-05-09 23:01:00,61.0,59.0,29.80,West,271,2.2,4.6,93,0.00,CLR,,0.25,0.0,WeatherDisplay:10.37,2013-05-10 04:01:00,
2013-05-09 23:06:00,60.9,58.9,29.80,West,271,0.6,2.3,93,0.00,CLR,,0.25,0.0,WeatherDisplay:10.37,2013-05-10 04:06:00,
2013-05-09 23:11:00,60.8,58.8,29.80,West,271,2.2,6.0,93,0.00,CLR,,0.25,0.0,WeatherDisplay:10.37,2013-05-10 04:11:00,
2013-05-09 23:16:00,60.7,58.7,29.80,West,271,0.0,1.2,93,0.00,CLR,,0.25,0.0,WeatherDisplay:10.37,2013-05-10 04:16:00,
2013-05-09 23:21:00,60.5,58.5,29.80,West,271,1.2,3.5,93,0.00,CLR,,0.25,0.0,WeatherDisplay:10.37,2013-05-10 04:21:00,
2013-05-09 23:26:00,60.4,58.4,29.80,West,271,3.4,4.0,93,0.00,CLR,,0.25,0.0,WeatherDisplay:10.37,2013-05-10 04:26:00,
2013-05-09 23:31:00,60.2,58.2,29.81,West,271,1.7,3.5,93,0.00,CLR,,0.25,0.0,WeatherDisplay:10.37,2013-05-10 04:31:00,
2013-05-09 23:36:00,60.1,58.1,29.81,West,271,1.4,3.0,93,0.00,CLR,,0.25,0.0,WeatherDisplay:10.37,2013-05-10 04:36:00,
2013-05-09 23:41:00,60.0,58.0,29.81,SW,217,3.2,5.8,93,0.00,CLR,,0.25,0.0,WeatherDisplay:10.37,2013-05-10 04:41:00,
2013-05-09 23:46:00,60.0,58.0,29.81,SW,217,3.2,4.0,93,0.00,CLR,,0.25,0.0,WeatherDisplay:10.37,2013-05-10 04:46:00,
2013-05-09 23:51:00,60.0,58.0,29.80,SW,215,1.1,4.6,93,0.00,CLR,,0.25,0.0,WeatherDisplay:10.37,2013-05-10 04:51:00,
2013-05-09 23:56:00,60.0,58.0,29.80,SW,217,1.6,4.6,93,0.00,CLR,,0.25,0.0,WeatherDisplay:10.37,2013-05-10 04:56:00,